createdAt,value
2018-06-21T00:01:49.948Z,8.77
2018-06-21T00:04:18.490Z,9.30
2018-06-21T00:06:47.284Z,9.37
2018-06-21T00:09:15.701Z,10.43
2018-06-21T00:11:44.073Z,9.00
2018-06-21T00:14:12.509Z,9.23
2018-06-21T00:16:40.913Z,10.10
2018-06-21T00:19:09.325Z,11.33
2018-06-21T00:21:37.735Z,10.00
2018-06-21T00:24:06.197Z,9.70
2018-06-21T00:26:34.581Z,9.23
2018-06-21T00:29:02.990Z,9.47
2018-06-21T00:31:31.396Z,9.73
2018-06-21T00:33:59.840Z,9.90
2018-06-21T00:36:28.487Z,10.43
2018-06-21T00:38:56.944Z,10.13
2018-06-21T00:41:25.403Z,12.43
2018-06-21T00:43:53.940Z,12.63
2018-06-21T00:46:22.345Z,9.40
2018-06-21T00:48:50.906Z,11.37
2018-06-21T00:51:19.347Z,9.27
2018-06-21T00:53:47.776Z,12.13
2018-06-21T00:56:18.317Z,10.83
2018-06-21T00:58:47.518Z,10.13
2018-06-21T01:01:16.846Z,10.37
2018-06-21T01:03:45.719Z,10.67
2018-06-21T01:06:14.599Z,10.67
2018-06-21T01:08:43.041Z,10.67
2018-06-21T01:11:11.532Z,10.70
2018-06-21T01:13:40.129Z,10.40
2018-06-21T01:16:08.503Z,11.10
2018-06-21T01:18:36.921Z,10.07
2018-06-21T01:21:05.746Z,10.77
2018-06-21T01:23:34.155Z,11.60
2018-06-21T01:26:02.811Z,12.10
2018-06-21T01:28:31.197Z,10.27
2018-06-21T01:30:59.596Z,12.03
2018-06-21T01:33:28.023Z,9.90
2018-06-21T01:35:56.104Z,10.30
2018-06-21T01:38:24.487Z,9.30
2018-06-21T01:40:52.865Z,9.23
2018-06-21T01:43:21.435Z,9.90
2018-06-21T01:45:49.813Z,9.90
2018-06-21T01:48:18.291Z,10.27
2018-06-21T01:50:46.814Z,11.30
2018-06-21T01:53:15.242Z,10.30
2018-06-21T01:55:43.734Z,11.67
2018-06-21T01:58:12.179Z,9.93
2018-06-21T02:00:40.646Z,11.20
2018-06-21T02:03:09.249Z,11.30
2018-06-21T02:05:37.732Z,11.53
2018-06-21T02:08:06.198Z,11.67
2018-06-21T02:10:34.575Z,12.00
2018-06-21T02:13:03.153Z,10.63
2018-06-21T02:15:31.976Z,12.07
2018-06-21T02:18:00.369Z,10.73
2018-06-21T02:20:28.813Z,11.60
2018-06-21T02:22:57.252Z,11.27
2018-06-21T02:25:25.840Z,12.23
2018-06-21T02:27:54.259Z,11.63
2018-06-21T02:30:22.634Z,12.00
2018-06-21T02:32:51.056Z,11.50
2018-06-21T02:35:19.483Z,12.77
2018-06-21T02:37:47.938Z,11.90
2018-06-21T02:40:16.312Z,12.77
2018-06-21T02:42:44.904Z,12.10
2018-06-21T02:45:14.740Z,12.63
2018-06-21T02:47:43.436Z,12.37
2018-06-21T02:50:11.873Z,12.13
2018-06-21T02:52:40.282Z,13.13
2018-06-21T02:55:08.752Z,12.63
2018-06-21T02:57:37.140Z,15.93
2018-06-21T03:00:05.640Z,13.57
2018-06-21T03:02:34.008Z,14.83
2018-06-21T03:05:02.412Z,12.83
2018-06-21T03:07:30.774Z,13.23
2018-06-21T03:09:59.184Z,12.90
2018-06-21T03:12:27.562Z,13.13
2018-06-21T03:14:56.001Z,12.83
2018-06-21T03:17:24.421Z,12.97
2018-06-21T03:19:52.859Z,13.73
2018-06-21T03:22:21.284Z,12.80
2018-06-21T03:24:49.764Z,13.67
2018-06-21T03:27:18.162Z,13.37
2018-06-21T03:29:46.559Z,13.17
2018-06-21T03:32:14.966Z,12.13
2018-06-21T03:34:43.340Z,12.53
2018-06-21T03:37:11.762Z,12.60
2018-06-21T03:39:40.188Z,15.30
2018-06-21T03:42:08.595Z,20.20
2018-06-21T03:44:36.982Z,37.10
2018-06-21T03:47:05.435Z,15.17
2018-06-21T03:49:33.866Z,14.17
2018-06-21T03:52:02.300Z,12.73
2018-06-21T03:54:30.722Z,13.00
2018-06-21T03:56:59.171Z,12.57
2018-06-21T03:59:27.316Z,13.70
2018-06-21T04:01:56.103Z,12.77
2018-06-21T04:04:24.496Z,12.93
2018-06-21T04:06:52.960Z,12.40
2018-06-21T04:09:21.374Z,12.90
2018-06-21T04:11:49.842Z,14.03
2018-06-21T04:14:18.246Z,16.10
2018-06-21T04:16:46.652Z,13.50
2018-06-21T04:19:15.127Z,15.03
2018-06-21T04:21:43.589Z,14.90
2018-06-21T04:24:12.057Z,13.17
2018-06-21T04:26:40.592Z,14.30
2018-06-21T04:29:08.984Z,17.73
2018-06-21T04:31:38.274Z,15.30
2018-06-21T04:34:06.752Z,14.00
2018-06-21T04:36:35.783Z,13.90
2018-06-21T04:39:06.168Z,16.60
2018-06-21T04:41:34.646Z,14.40
2018-06-21T04:44:03.178Z,20.43
2018-06-21T04:46:31.614Z,13.13
2018-06-21T04:49:00.089Z,18.80
2018-06-21T04:51:28.487Z,14.67
2018-06-21T04:53:56.972Z,13.70
2018-06-21T04:56:25.343Z,16.23
2018-06-21T04:58:53.770Z,13.03
2018-06-21T05:01:22.170Z,14.90
2018-06-21T05:03:50.571Z,14.20
2018-06-21T05:06:18.964Z,15.57
2018-06-21T05:08:47.428Z,12.63
2018-06-21T05:11:15.845Z,12.60
2018-06-21T05:13:44.019Z,13.47
2018-06-21T05:16:12.500Z,12.47
2018-06-21T05:18:40.957Z,12.70
2018-06-21T05:21:09.747Z,12.97
2018-06-21T05:23:38.336Z,15.03
2018-06-21T05:26:06.800Z,13.57
2018-06-21T05:28:35.215Z,12.00
2018-06-21T05:31:03.612Z,11.50
2018-06-21T05:33:32.217Z,11.93
2018-06-21T05:36:00.886Z,11.07
2018-06-21T05:38:29.384Z,15.50
2018-06-21T05:40:57.781Z,10.47
2018-06-21T05:43:26.197Z,10.93
2018-06-21T05:45:54.638Z,12.13
2018-06-21T05:48:23.037Z,11.03
2018-06-21T05:50:51.441Z,13.27
2018-06-21T05:53:19.889Z,12.63
2018-06-21T05:55:48.435Z,12.97
2018-06-21T05:58:17.582Z,16.80
2018-06-21T06:00:46.035Z,18.10
2018-06-21T06:03:15.145Z,13.10
2018-06-21T06:05:43.656Z,22.60
2018-06-21T06:08:12.090Z,19.97
2018-06-21T06:10:40.598Z,22.60
2018-06-21T06:13:08.732Z,24.47
2018-06-21T06:15:37.097Z,20.27
2018-06-21T06:18:05.843Z,19.37
2018-06-21T06:20:34.251Z,11.87
2018-06-21T06:23:02.673Z,12.20
2018-06-21T06:25:31.214Z,11.47
2018-06-21T06:27:59.620Z,17.40
2018-06-21T06:30:28.008Z,16.43
2018-06-21T06:32:56.489Z,13.73
2018-06-21T06:35:30.740Z,14.20
2018-06-21T06:38:00.358Z,11.73
2018-06-21T06:40:28.967Z,11.40
2018-06-21T06:42:57.770Z,15.93
2018-06-21T06:45:26.436Z,14.60
2018-06-21T06:47:54.896Z,12.67
2018-06-21T06:50:23.442Z,11.50
2018-06-21T06:52:52.235Z,17.13
2018-06-21T06:55:20.638Z,17.97
2018-06-21T06:57:49.105Z,16.77
2018-06-21T07:00:17.520Z,16.57
2018-06-21T07:02:46.233Z,12.40
2018-06-21T07:05:16.185Z,12.00
2018-06-21T07:07:44.612Z,13.70
2018-06-21T07:10:13.126Z,13.87
2018-06-21T07:12:42.547Z,6.60
2018-06-21T07:15:11.006Z,9.73
2018-06-21T07:17:39.691Z,7.77
2018-06-21T07:20:08.238Z,9.30
2018-06-21T07:22:36.748Z,6.63
2018-06-21T07:25:05.272Z,9.40
2018-06-21T07:27:33.810Z,11.23
2018-06-21T07:30:02.470Z,7.80
2018-06-21T07:32:30.995Z,8.80
2018-06-21T07:34:59.515Z,8.43
2018-06-21T07:37:28.377Z,7.33
2018-06-21T07:39:56.799Z,5.97
2018-06-21T07:42:25.242Z,8.83
2018-06-21T07:44:53.715Z,7.07
2018-06-21T07:47:22.150Z,7.47
2018-06-21T07:49:50.605Z,6.63
2018-06-21T07:52:19.152Z,8.03
2018-06-21T07:54:47.571Z,10.57
2018-06-21T07:57:16.098Z,8.53
2018-06-21T07:59:44.697Z,13.70
2018-06-21T08:02:13.683Z,8.90
2018-06-21T08:04:42.713Z,8.13
2018-06-21T08:07:11.686Z,6.53
2018-06-21T08:09:40.193Z,9.17
2018-06-21T08:12:08.773Z,8.50
2018-06-21T08:14:37.345Z,4.83
2018-06-21T08:17:06.581Z,5.73
2018-06-21T08:19:34.997Z,6.80
2018-06-21T08:22:03.539Z,6.00
2018-06-21T08:24:31.997Z,6.53
2018-06-21T08:27:00.572Z,10.07
2018-06-21T08:29:28.991Z,7.60
2018-06-21T08:31:57.519Z,6.97
2018-06-21T08:34:25.976Z,4.77
2018-06-21T08:36:54.416Z,5.37
2018-06-21T08:39:22.928Z,4.40
2018-06-21T08:41:51.464Z,6.37
2018-06-21T08:44:19.976Z,5.83
2018-06-21T08:46:48.479Z,9.30
2018-06-21T08:49:16.956Z,5.87
2018-06-21T08:51:45.550Z,8.37
2018-06-21T08:54:14.247Z,7.87
2018-06-21T08:56:42.955Z,9.27
2018-06-21T08:59:11.126Z,9.73
2018-06-21T09:01:39.570Z,6.20
2018-06-21T09:04:08.057Z,12.90
2018-06-21T09:06:36.671Z,12.03
2018-06-21T09:09:07.845Z,9.43
2018-06-21T09:11:36.296Z,5.90
2018-06-21T09:14:04.875Z,7.60
2018-06-21T09:16:33.408Z,7.70
2018-06-21T09:19:01.868Z,5.23
2018-06-21T09:21:30.294Z,4.83
2018-06-21T09:23:58.763Z,9.27
2018-06-21T09:26:27.220Z,5.57
2018-06-21T09:28:55.762Z,7.47
2018-06-21T09:31:24.649Z,6.90
2018-06-21T09:33:53.188Z,10.17
2018-06-21T09:36:21.739Z,8.67
2018-06-21T09:38:55.399Z,7.77
2018-06-21T09:41:29.160Z,8.73
2018-06-21T09:44:04.358Z,7.13
2018-06-21T09:46:36.654Z,8.27
2018-06-21T09:49:05.139Z,5.83
2018-06-21T09:51:33.687Z,4.93
2018-06-21T09:54:02.114Z,5.23
2018-06-21T09:56:30.533Z,4.23
2018-06-21T09:58:58.958Z,5.80
2018-06-21T10:01:27.544Z,5.37
2018-06-21T10:03:56.185Z,6.20
2018-06-21T10:06:24.738Z,5.10
2018-06-21T10:08:53.278Z,5.10
2018-06-21T10:11:22.022Z,6.90
2018-06-21T10:13:50.535Z,3.87
2018-06-21T10:16:19.027Z,7.07
2018-06-21T10:18:47.463Z,5.73
2018-06-21T10:21:16.060Z,4.60
2018-06-21T10:23:44.541Z,6.10
2018-06-21T10:26:13.137Z,7.40
2018-06-21T10:28:41.559Z,4.53
2018-06-21T10:31:10.202Z,6.10
2018-06-21T10:33:38.709Z,6.47
2018-06-21T10:36:07.241Z,9.93
2018-06-21T10:38:35.646Z,4.23
2018-06-21T10:41:04.320Z,5.13
2018-06-21T10:43:32.518Z,5.10
2018-06-21T10:46:01.064Z,4.13
2018-06-21T10:48:29.604Z,5.00
2018-06-21T10:50:58.124Z,6.10
2018-06-21T10:53:26.591Z,7.03
2018-06-21T10:55:54.995Z,4.63
2018-06-21T10:58:23.478Z,4.30
2018-06-21T11:00:51.992Z,4.70
2018-06-21T11:03:20.415Z,4.33
2018-06-21T11:05:48.889Z,4.63
2018-06-21T11:08:17.341Z,4.37
2018-06-21T11:10:45.764Z,5.10
2018-06-21T11:13:14.176Z,5.00
2018-06-21T11:15:42.660Z,5.67
2018-06-21T11:18:11.260Z,5.33
2018-06-21T11:20:39.872Z,10.57
2018-06-21T11:23:08.467Z,8.13
2018-06-21T11:25:36.916Z,5.10
2018-06-21T11:28:05.470Z,4.53
2018-06-21T11:30:33.882Z,4.43
2018-06-21T11:33:02.316Z,7.60
2018-06-21T11:35:30.819Z,5.37
2018-06-21T11:37:59.318Z,4.30
2018-06-21T11:40:27.787Z,3.87
2018-06-21T11:42:56.237Z,6.07
2018-06-21T11:45:24.665Z,7.83
2018-06-21T11:47:53.144Z,5.53
2018-06-21T11:50:21.626Z,5.33
2018-06-21T11:52:50.089Z,6.97
2018-06-21T11:55:18.538Z,4.63
2018-06-21T11:57:47.012Z,8.43
2018-06-21T12:00:15.737Z,8.63
2018-06-21T12:02:44.207Z,4.93
2018-06-21T12:05:12.644Z,4.67
2018-06-21T12:07:41.075Z,8.93
2018-06-21T12:10:09.609Z,9.30
2018-06-21T12:12:38.082Z,6.00
2018-06-21T12:15:06.589Z,7.73
2018-06-21T12:17:35.102Z,9.37
2018-06-21T12:20:03.643Z,9.73
2018-06-21T12:22:32.138Z,7.07
2018-06-21T12:25:00.217Z,6.00
2018-06-21T12:27:28.690Z,8.20
2018-06-21T12:29:57.303Z,7.93
2018-06-21T12:32:26.008Z,6.37
2018-06-21T12:34:54.662Z,7.03
2018-06-21T12:37:23.166Z,4.67
2018-06-21T12:39:51.740Z,8.80
2018-06-21T12:42:20.258Z,4.97
2018-06-21T12:44:48.752Z,4.03
2018-06-21T12:47:17.190Z,7.07
2018-06-21T12:49:45.649Z,4.37
2018-06-21T12:52:14.115Z,4.37
2018-06-21T12:54:42.635Z,6.20
2018-06-21T12:57:11.147Z,4.83
2018-06-21T12:59:39.797Z,5.00
2018-06-21T13:02:08.365Z,4.00
2018-06-21T13:04:36.881Z,5.73
2018-06-21T13:07:05.454Z,4.30
2018-06-21T13:09:45.373Z,8.33
2018-06-21T13:12:28.520Z,5.63
2018-06-21T13:14:57.306Z,6.23
2018-06-21T13:17:26.822Z,6.07
2018-06-21T13:19:55.382Z,6.20
2018-06-21T13:22:23.972Z,3.57
2018-06-21T13:24:53.242Z,6.43
2018-06-21T13:27:21.723Z,8.47
2018-06-21T13:29:50.160Z,5.43
2018-06-21T13:32:19.206Z,7.27
2018-06-21T13:34:47.781Z,7.43
2018-06-21T13:37:16.513Z,4.43
2018-06-21T13:39:44.962Z,5.10
2018-06-21T13:42:13.491Z,9.63
2018-06-21T13:44:42.508Z,9.60
2018-06-21T13:47:11.097Z,7.60
2018-06-21T13:49:39.609Z,9.17
2018-06-21T13:52:08.161Z,8.07
2018-06-21T13:54:36.663Z,5.03
2018-06-21T13:57:05.266Z,7.97
2018-06-21T13:59:33.859Z,11.60
2018-06-21T14:02:02.396Z,6.80
2018-06-21T14:04:30.853Z,10.57
2018-06-21T14:06:59.388Z,4.60
2018-06-21T14:09:27.854Z,7.87
2018-06-21T14:11:56.287Z,5.93
2018-06-21T14:14:24.747Z,11.93
2018-06-21T14:16:53.274Z,6.77
2018-06-21T14:19:21.786Z,5.70
2018-06-21T14:21:50.296Z,7.27
2018-06-21T14:24:18.687Z,6.67
2018-06-21T14:26:47.131Z,4.10
2018-06-21T14:29:15.612Z,10.73
2018-06-21T14:31:44.075Z,9.23
2018-06-21T14:34:12.538Z,5.37
2018-06-21T14:36:41.024Z,9.80
2018-06-21T14:39:10.011Z,10.70
2018-06-21T14:41:38.843Z,8.57
2018-06-21T14:44:07.346Z,10.77
2018-06-21T14:46:35.864Z,5.13
2018-06-21T14:49:04.362Z,7.20
2018-06-21T14:51:32.868Z,9.27
2018-06-21T14:54:01.388Z,6.33
2018-06-21T14:56:29.896Z,10.33
2018-06-21T14:58:58.574Z,11.30
2018-06-21T15:01:27.104Z,6.13
2018-06-21T15:03:55.531Z,6.77
2018-06-21T15:06:24.051Z,6.57
2018-06-21T15:08:52.629Z,8.67
2018-06-21T15:11:21.136Z,8.57
2018-06-21T15:13:50.809Z,5.53
2018-06-21T15:16:22.644Z,5.10
2018-06-21T15:18:51.160Z,6.37
2018-06-21T15:21:19.737Z,6.20
2018-06-21T15:23:48.522Z,9.03
2018-06-21T15:26:17.252Z,6.67
2018-06-21T15:28:45.738Z,9.50
2018-06-21T15:31:14.316Z,7.07
2018-06-21T15:33:42.832Z,5.70
2018-06-21T15:36:11.387Z,8.93
2018-06-21T15:38:39.926Z,11.90
2018-06-21T15:41:08.356Z,9.17
2018-06-21T15:43:36.757Z,7.57
2018-06-21T15:46:05.210Z,4.97
2018-06-21T15:48:33.791Z,5.47
2018-06-21T15:51:02.299Z,6.07
2018-06-21T15:53:30.828Z,6.83
2018-06-21T15:55:59.301Z,9.03
2018-06-21T15:58:28.097Z,7.50
2018-06-21T16:00:56.609Z,6.03
2018-06-21T16:03:25.187Z,8.57
2018-06-21T16:05:53.807Z,7.87
2018-06-21T16:08:22.299Z,7.97
2018-06-21T16:10:50.991Z,7.57
2018-06-21T16:13:19.603Z,4.67
2018-06-21T16:15:48.917Z,4.53
2018-06-21T16:18:17.522Z,9.50
2018-06-21T16:20:46.114Z,4.77
2018-06-21T16:23:14.677Z,13.73
2018-06-21T16:25:43.982Z,5.97
2018-06-21T16:28:12.185Z,8.40
2018-06-21T16:30:40.683Z,3.67
2018-06-21T16:33:09.195Z,8.33
2018-06-21T16:35:37.689Z,8.50
2018-06-21T16:38:06.573Z,5.50
2018-06-21T16:40:35.138Z,6.37
2018-06-21T16:43:03.730Z,8.83
2018-06-21T16:45:32.459Z,8.43
2018-06-21T16:48:01.717Z,4.73
2018-06-21T16:50:30.284Z,9.90
2018-06-21T16:52:58.956Z,6.20
2018-06-21T16:55:27.537Z,8.87
2018-06-21T16:57:55.998Z,7.93
2018-06-21T17:00:24.534Z,7.70
2018-06-21T17:02:53.079Z,7.03
2018-06-21T17:05:21.721Z,4.57
2018-06-21T17:07:50.305Z,4.30
2018-06-21T17:10:18.938Z,10.67
2018-06-21T17:12:47.513Z,6.53
2018-06-21T17:15:16.164Z,5.97
2018-06-21T17:17:44.736Z,5.07
2018-06-21T17:20:13.351Z,6.73
2018-06-21T17:22:42.075Z,6.47
2018-06-21T17:25:10.818Z,5.87
2018-06-21T17:27:39.479Z,8.60
2018-06-21T17:30:08.074Z,4.93
2018-06-21T17:32:36.926Z,10.87
2018-06-21T17:35:05.464Z,10.77
2018-06-21T17:37:34.148Z,8.83
2018-06-21T17:40:02.720Z,5.77
2018-06-21T17:42:31.178Z,7.80
2018-06-21T17:44:59.798Z,8.97
2018-06-21T17:47:28.503Z,7.17
2018-06-21T17:49:57.052Z,5.37
2018-06-21T17:52:25.618Z,5.97
2018-06-21T17:54:54.244Z,6.47
2018-06-21T17:57:22.734Z,5.77
2018-06-21T17:59:51.388Z,6.77
2018-06-21T18:02:19.893Z,9.53
2018-06-21T18:04:48.592Z,10.97
2018-06-21T18:07:17.279Z,7.33
2018-06-21T18:09:45.891Z,6.57
2018-06-21T18:12:14.770Z,8.83
2018-06-21T18:14:43.460Z,7.47
2018-06-21T18:17:12.151Z,6.40
2018-06-21T18:19:40.993Z,9.00
2018-06-21T18:22:09.744Z,8.70
2018-06-21T18:24:38.560Z,4.53
2018-06-21T18:27:07.356Z,6.57
2018-06-21T18:29:35.884Z,9.33
2018-06-21T18:32:04.504Z,6.17
2018-06-21T18:34:33.228Z,9.07
2018-06-21T18:37:02.019Z,6.23
2018-06-21T18:39:30.642Z,4.37
2018-06-21T18:41:59.270Z,5.67
2018-06-21T18:44:27.966Z,6.00
2018-06-21T18:46:56.565Z,4.43
2018-06-21T18:49:25.122Z,5.27
2018-06-21T18:51:53.735Z,6.57
2018-06-21T18:54:22.566Z,4.37
2018-06-21T18:56:51.424Z,10.93
2018-06-21T18:59:20.033Z,7.30
2018-06-21T19:01:48.723Z,6.33
2018-06-21T19:04:17.522Z,5.43
2018-06-21T19:06:51.670Z,8.80
2018-06-21T19:09:25.600Z,4.63
2018-06-21T19:11:56.074Z,5.07
2018-06-21T19:14:26.950Z,4.13
2018-06-21T19:16:56.320Z,5.50
2018-06-21T19:19:26.249Z,4.40
2018-06-21T19:21:56.379Z,5.63
2018-06-21T19:24:25.551Z,6.47
2018-06-21T19:26:53.988Z,7.23
2018-06-21T19:29:23.900Z,6.33
2018-06-21T19:31:53.490Z,5.40
2018-06-21T19:34:23.075Z,5.77
2018-06-21T19:36:52.181Z,6.90
2018-06-21T19:39:21.190Z,8.63
2018-06-21T19:41:50.153Z,6.13
2018-06-21T19:44:19.268Z,7.47
2018-06-21T19:46:48.688Z,16.83
2018-06-21T19:49:17.867Z,7.23
2018-06-21T19:51:46.853Z,6.63
2018-06-21T19:54:15.680Z,8.00
2018-06-21T19:56:44.965Z,7.47
2018-06-21T19:59:14.109Z,6.00
2018-06-21T20:01:43.194Z,6.00
2018-06-21T20:04:11.836Z,7.10
2018-06-21T20:06:40.557Z,13.20
2018-06-21T20:09:10.722Z,6.07
2018-06-21T20:11:39.771Z,7.80
2018-06-21T20:14:08.723Z,6.93
2018-06-21T20:16:37.422Z,6.23
2018-06-21T20:19:13.916Z,9.30
2018-06-21T20:21:42.736Z,6.97
2018-06-21T20:24:11.362Z,7.90
2018-06-21T20:26:40.076Z,8.93
2018-06-21T20:29:13.633Z,12.53
2018-06-21T20:31:42.296Z,7.10
2018-06-21T20:34:10.912Z,7.63
2018-06-21T20:36:40.048Z,7.07
2018-06-21T20:39:09.445Z,7.60
2018-06-21T20:41:37.905Z,7.37
2018-06-21T20:44:06.557Z,7.83
2018-06-21T20:46:35.357Z,6.10
2018-06-21T20:49:03.874Z,7.50
2018-06-21T20:51:32.494Z,9.17
2018-06-21T20:54:00.960Z,6.03
2018-06-21T20:56:29.494Z,5.80
2018-06-21T20:58:58.008Z,4.97
2018-06-21T21:01:26.213Z,6.20
2018-06-21T21:03:55.849Z,5.40
2018-06-21T21:06:24.339Z,5.50
2018-06-21T21:08:52.790Z,5.13
2018-06-21T21:11:21.171Z,8.00
2018-06-21T21:13:49.612Z,7.30
2018-06-21T21:16:18.068Z,4.43
2018-06-21T21:18:46.573Z,5.10
2018-06-21T21:21:14.776Z,3.20
2018-06-21T21:23:43.580Z,7.10
2018-06-21T21:26:12.056Z,4.00
2018-06-21T21:28:40.560Z,9.60
2018-06-21T21:31:09.041Z,5.47
2018-06-21T21:33:37.512Z,6.13
2018-06-21T21:36:06.074Z,6.17
2018-06-21T21:38:34.492Z,5.87
2018-06-21T21:41:02.969Z,4.90
2018-06-21T21:43:31.446Z,5.10
2018-06-21T21:45:59.876Z,5.00
2018-06-21T21:48:28.357Z,5.43
2018-06-21T21:50:56.774Z,4.00
2018-06-21T21:53:25.256Z,7.33
2018-06-21T21:55:53.714Z,4.50
2018-06-21T21:58:22.242Z,5.97
2018-06-21T22:00:52.812Z,5.57
2018-06-21T22:03:21.456Z,5.73
2018-06-21T22:05:50.091Z,3.43
2018-06-21T22:08:18.610Z,4.53
2018-06-21T22:10:47.643Z,4.43
2018-06-21T22:13:16.635Z,2.40
2018-06-21T22:15:45.342Z,3.90
2018-06-21T22:18:13.850Z,4.90
2018-06-21T22:20:42.309Z,5.80
2018-06-21T22:23:10.789Z,6.33
2018-06-21T22:25:39.203Z,6.10
2018-06-21T22:28:07.633Z,2.93
2018-06-21T22:30:36.085Z,3.33
2018-06-21T22:33:04.659Z,4.37
2018-06-21T22:35:33.429Z,3.67
2018-06-21T22:38:01.905Z,5.57
2018-06-21T22:40:30.343Z,5.97
2018-06-21T22:42:58.594Z,3.53
2018-06-21T22:45:27.124Z,2.87
2018-06-21T22:47:55.720Z,4.80
2018-06-21T22:50:24.244Z,5.20
2018-06-21T22:52:52.696Z,5.27
2018-06-21T22:55:21.424Z,5.07
2018-06-21T22:57:49.867Z,2.83
2018-06-21T23:00:18.447Z,7.40
2018-06-21T23:02:47.673Z,7.93
2018-06-21T23:05:16.407Z,3.07
2018-06-21T23:07:45.128Z,5.07
2018-06-21T23:10:13.701Z,7.80
2018-06-21T23:12:42.315Z,4.27
2018-06-21T23:15:10.800Z,4.50
2018-06-21T23:17:39.415Z,7.63
2018-06-21T23:20:07.888Z,3.43
2018-06-21T23:22:36.449Z,5.60
2018-06-21T23:25:05.020Z,3.97
2018-06-21T23:27:33.456Z,2.60
2018-06-21T23:30:01.926Z,4.57
2018-06-21T23:32:30.353Z,5.50
2018-06-21T23:34:58.756Z,4.27
2018-06-21T23:37:26.852Z,3.90
2018-06-21T23:39:55.311Z,5.57
2018-06-21T23:42:23.713Z,8.37
2018-06-21T23:44:52.162Z,9.60
2018-06-21T23:47:20.596Z,4.57
2018-06-21T23:49:48.973Z,5.93
2018-06-21T23:52:17.414Z,3.87
2018-06-21T23:54:45.843Z,3.93
2018-06-21T23:57:14.324Z,4.17
2018-06-21T23:59:42.736Z,4.87
